Rezekne, Latvia
Current Conditions -  °F | °C
As of 11:30 PM on Tuesday 27 Jan 2015 (Local Time) from ULOO Reporting Station
Haze Haze  
Wind Chill: 21°   Ceiling: 3400
Heat Index: 28°   Visibility: 2.3mi
Dew Point: 27°   Wind: 7mph
Humidity: 93%   Direction: 190°S
Pressure: 29.85"   Gusts: NA
Location:  56.51°N, 27.32°E
Report Text: ULOO 272030Z 19003MPS 3700 BR OVC034 M02/M03 Q1011 19190060NOSIG RMK QFE754
Loading
Personal Weather Stations






























Interactive Weather Map New forecast layout! Learn more

10-Day Weather Forecast

Advertisements
Track Severe Weather on mobile